Time;durP1;ratioP1;P1;durP2;ratioP2;P2;SDS_P1;SDS_P2;PMS_P1;PMS_P2;Temp;Humidity;BMP_temperature;BMP_pressure;BME280_temperature;BME280_humidity;BME280_pressure;Samples;Min_cycle;Max_cycle;Signal;HPM_P1;HPM_P2
2021/07/11 00:00:49;;;;;;;53.42;31.20;;;17.40;99.90;;;;;;5033197;28;20049;-70
2021/07/11 00:03:14;;;;;;;51.45;32.65;;;17.50;99.90;;;;;;5034723;28;20104;-71
2021/07/11 00:05:40;;;;;;;45.45;31.08;;;17.50;99.90;;;;;;5034435;28;20017;-71
2021/07/11 00:08:05;;;;;;;49.63;31.77;;;17.50;99.90;;;;;;5033885;28;20041;-71
2021/07/11 00:10:31;;;;;;;52.00;32.88;;;17.50;99.90;;;;;;5034681;28;20045;-71
2021/07/11 00:12:57;;;;;;;44.83;29.73;;;17.50;99.90;;;;;;5033821;28;20024;-69
2021/07/11 00:15:24;;;;;;;45.10;30.08;;;17.60;99.90;;;;;;5033465;28;20465;-71
2021/07/11 00:17:51;;;;;;;48.80;31.27;;;17.60;99.90;;;;;;5033696;28;20358;-72
2021/07/11 00:20:19;;;;;;;48.97;32.00;;;17.60;99.90;;;;;;5034279;28;20021;-70
2021/07/11 00:22:44;;;;;;;44.67;31.02;;;17.60;99.90;;;;;;5033129;28;20469;-71
2021/07/11 00:25:13;;;;;;;45.67;30.38;;;17.60;99.90;;;;;;5034029;28;20105;-72
2021/07/11 00:27:39;;;;;;;47.00;31.10;;;17.70;99.90;;;;;;5034044;28;20034;-70
2021/07/11 00:30:05;;;;;;;40.95;29.15;;;17.70;99.90;;;;;;5032563;28;20034;-70
2021/07/11 00:32:31;;;;;;;38.03;26.55;;;17.70;99.90;;;;;;5027114;28;20026;-71
2021/07/11 00:34:56;;;;;;;43.00;29.27;;;17.70;99.90;;;;;;5033639;28;20404;-71
2021/07/11 00:37:22;;;;;;;44.72;29.20;;;17.70;99.90;;;;;;5033124;28;20022;-70
2021/07/11 00:39:48;;;;;;;47.60;31.27;;;17.80;99.90;;;;;;5033633;28;20029;-71
2021/07/11 00:42:15;;;;;;;40.67;28.58;;;17.70;99.90;;;;;;5033172;28;20021;-70
2021/07/11 00:44:42;;;;;;;40.35;29.50;;;17.70;99.90;;;;;;5033617;28;20032;-71
2021/07/11 00:47:09;;;;;;;63.97;31.60;;;17.80;99.90;;;;;;5034003;28;20021;-70
2021/07/11 00:49:34;;;;;;;47.03;31.02;;;17.70;99.90;;;;;;5032845;28;20033;-71
2021/07/11 00:52:00;;;;;;;41.53;29.58;;;17.70;99.90;;;;;;5033083;28;20029;-70
2021/07/11 00:54:34;;;;;;;50.05;31.77;;;17.70;99.90;;;;;;5033471;28;20056;-72
2021/07/11 00:57:01;;;;;;;45.70;29.80;;;17.70;99.90;;;;;;5032336;28;20025;-71
2021/07/11 00:59:27;;;;;;;42.72;29.90;;;17.70;99.90;;;;;;5033373;28;20037;-70
2021/07/11 01:02:02;;;;;;;46.83;29.35;;;17.70;99.90;;;;;;5032222;28;20048;-71
2021/07/11 01:04:53;;;;;;;46.58;30.08;;;17.60;99.90;;;;;;5032621;28;20503;-71
2021/07/11 01:07:41;;;;;;;43.45;28.60;;;17.70;99.90;;;;;;5034015;28;20377;-70
2021/07/11 01:10:24;;;;;;;50.78;31.55;;;17.70;99.90;;;;;;5032970;28;20060;-70
2021/07/11 01:12:54;;;;;;;43.90;31.70;;;17.70;99.90;;;;;;5020544;28;20520;-71
2021/07/11 01:15:22;;;;;;;45.90;29.27;;;17.70;99.90;;;;;;5033014;28;20050;-71
2021/07/11 01:17:50;;;;;;;47.22;29.63;;;17.70;99.90;;;;;;5032067;28;20030;-71
2021/07/11 01:20:36;;;;;;;49.42;31.85;;;17.60;99.90;;;;;;5033266;28;20057;-71
2021/07/11 01:23:06;;;;;;;42.78;29.45;;;17.60;99.90;;;;;;5020479;28;20022;-72
2021/07/11 01:25:40;;;;;;;44.50;29.25;;;17.70;99.90;;;;;;5032921;28;20057;-71
2021/07/11 01:28:10;;;;;;;40.33;27.40;;;17.60;99.90;;;;;;5020485;28;20032;-71
2021/07/11 01:30:37;;;;;;;37.83;27.30;;;17.60;99.90;;;;;;5033062;28;20064;-70
2021/07/11 01:33:05;;;;;;;39.67;27.38;;;17.60;99.90;;;;;;5032048;28;20033;-70
2021/07/11 01:35:32;;;;;;;37.28;26.92;;;17.60;99.90;;;;;;5032723;28;20033;-70
2021/07/11 01:37:58;;;;;;;36.13;25.50;;;17.50;99.90;;;;;;5032209;28;20038;-71
2021/07/11 01:40:26;;;;;;;37.40;25.85;;;17.40;99.90;;;;;;5032133;28;20441;-70
2021/07/11 01:42:53;;;;;;;37.25;26.15;;;17.40;99.90;;;;;;5032339;28;20033;-70
2021/07/11 01:45:19;;;;;;;39.00;24.67;;;17.30;99.90;;;;;;5032379;28;20532;-70
2021/07/11 01:47:45;;;;;;;41.85;25.83;;;17.30;99.90;;;;;;5031663;28;20148;-71
2021/07/11 01:50:12;;;;;;;39.67;26.70;;;17.30;99.90;;;;;;5032306;28;20119;-71
2021/07/11 01:52:40;;;;;;;41.92;26.90;;;17.30;99.90;;;;;;5031708;28;20033;-71
2021/07/11 01:55:07;;;;;;;43.53;27.85;;;17.30;99.90;;;;;;5032063;28;20025;-70
2021/07/11 01:57:34;;;;;;;40.20;26.95;;;17.20;99.90;;;;;;5032146;28;20563;-70
2021/07/11 02:00:00;;;;;;;41.30;27.10;;;17.20;99.90;;;;;;5031385;28;20033;-71
2021/07/11 02:02:25;;;;;;;39.63;27.65;;;17.20;99.90;;;;;;5032603;28;20037;-71
2021/07/11 02:04:51;;;;;;;44.95;27.45;;;17.20;99.90;;;;;;5031991;28;20707;-70
2021/07/11 02:07:17;;;;;;;45.08;28.30;;;17.20;99.90;;;;;;5031780;28;20555;-71
2021/07/11 02:09:43;;;;;;;45.55;27.50;;;17.30;99.90;;;;;;5033346;28;20113;-71
2021/07/11 02:12:09;;;;;;;42.38;27.02;;;16.90;99.90;;;;;;5037684;28;20021;-70
2021/07/11 02:14:38;;;;;;;39.15;27.02;;;17.20;99.90;;;;;;5034419;28;20083;-71
2021/07/11 02:17:09;;;;;;;42.17;28.38;;;17.30;99.90;;;;;;5032272;28;20080;-70
2021/07/11 02:19:38;;;;;;;39.47;26.75;;;17.20;99.90;;;;;;5032275;28;20030;-71
2021/07/11 02:22:06;;;;;;;43.28;28.58;;;17.30;99.90;;;;;;5031172;28;20025;-70
2021/07/11 02:24:38;;;;;;;40.50;27.67;;;17.30;99.90;;;;;;5031811;28;20026;-71
2021/07/11 02:27:05;;;;;;;41.22;27.33;;;17.30;99.90;;;;;;5031866;28;20025;-70
2021/07/11 02:29:37;;;;;;;41.05;26.20;;;17.30;99.90;;;;;;5031565;28;20037;-71
2021/07/11 02:32:05;;;;;;;41.15;26.25;;;17.30;99.90;;;;;;5031716;28;20026;-70
2021/07/11 02:34:32;;;;;;;41.35;27.23;;;17.30;99.90;;;;;;5032191;28;20485;-71
2021/07/11 02:37:01;;;;;;;42.50;27.85;;;17.30;99.90;;;;;;5031006;28;20022;-71
2021/07/11 02:39:27;;;;;;;40.47;27.08;;;17.30;99.90;;;;;;5031973;28;20021;-70
2021/07/11 02:42:00;;;;;;;44.33;28.13;;;17.30;99.90;;;;;;5031069;28;20477;-71
2021/07/11 02:44:27;;;;;;;44.58;29.17;;;17.30;99.90;;;;;;5031895;28;20057;-72
2021/07/11 02:46:57;;;;;;;49.55;28.95;;;17.30;99.90;;;;;;5031744;28;20072;-71
2021/07/11 02:49:25;;;;;;;48.20;29.52;;;17.30;99.90;;;;;;5031347;28;20485;-72
2021/07/11 02:51:53;;;;;;;48.15;30.17;;;17.20;99.90;;;;;;5031871;28;20029;-70
2021/07/11 02:54:24;;;;;;;53.25;32.33;;;17.20;99.90;;;;;;5031968;28;20103;-72
2021/07/11 02:56:55;;;;;;;57.90;33.08;;;17.20;99.90;;;;;;5030753;28;20026;-71
2021/07/11 02:59:21;;;;;;;55.70;33.33;;;17.20;99.90;;;;;;5031884;28;20038;-70
2021/07/11 03:01:48;;;;;;;57.17;31.25;;;17.20;99.90;;;;;;5031223;28;20053;-71
2021/07/11 03:04:15;;;;;;;56.58;32.92;;;17.20;99.90;;;;;;5031071;28;20029;-71
2021/07/11 03:06:41;;;;;;;57.67;33.97;;;17.20;99.90;;;;;;5031596;28;20036;-71
2021/07/11 03:09:07;;;;;;;54.17;31.67;;;17.20;99.90;;;;;;5031280;28;20034;-70
2021/07/11 03:11:37;;;;;;;59.38;34.78;;;17.20;99.90;;;;;;5031331;28;20021;-72
2021/07/11 03:14:05;;;;;;;55.42;33.08;;;17.20;99.90;;;;;;5031497;28;20029;-70
2021/07/11 03:16:31;;;;;;;55.67;33.65;;;17.20;99.90;;;;;;5031605;28;20033;-70
2021/07/11 03:18:58;;;;;;;57.67;32.95;;;17.20;99.90;;;;;;5030734;28;20423;-72
2021/07/11 03:21:25;;;;;;;52.58;33.40;;;17.20;99.90;;;;;;5031668;28;20052;-71
2021/07/11 03:23:52;;;;;;;59.15;34.50;;;17.20;99.90;;;;;;5032557;28;20021;-71
2021/07/11 03:26:19;;;;;;;54.85;33.50;;;17.20;99.90;;;;;;5035404;28;20034;-70
2021/07/11 03:28:50;;;;;;;51.17;33.40;;;17.20;99.90;;;;;;5034691;28;20074;-70
2021/07/11 03:31:17;;;;;;;55.55;32.90;;;17.20;99.90;;;;;;5034479;28;20033;-69
2021/07/11 03:33:46;;;;;;;60.33;33.90;;;17.20;99.90;;;;;;5034893;28;20091;-70
2021/07/11 03:36:15;;;;;;;60.72;34.42;;;17.30;99.90;;;;;;5035015;28;20029;-71
2021/07/11 03:38:47;;;;;;;61.80;34.38;;;17.20;99.90;;;;;;5034100;28;20020;-70
2021/07/11 03:41:15;;;;;;;54.13;32.67;;;17.20;99.90;;;;;;5034804;28;20039;-71
2021/07/11 03:43:44;;;;;;;56.65;34.65;;;17.20;99.90;;;;;;5034657;28;20029;-71
2021/07/11 03:46:11;;;;;;;53.05;33.20;;;17.50;99.90;;;;;;5034185;28;20053;-71
2021/07/11 03:48:43;;;;;;;56.15;32.80;;;17.30;99.90;;;;;;5034760;28;20044;-71
2021/07/11 03:51:10;;;;;;;57.95;34.28;;;17.30;99.90;;;;;;5033620;28;20138;-71
2021/07/11 03:53:38;;;;;;;57.17;33.33;;;17.30;99.90;;;;;;5034249;28;20042;-70
2021/07/11 03:56:05;;;;;;;62.67;33.92;;;17.20;99.90;;;;;;5034174;28;20033;-71
2021/07/11 03:58:37;;;;;;;53.63;33.45;;;17.30;99.90;;;;;;5034733;28;20022;-70
2021/07/11 04:01:03;;;;;;;52.28;33.50;;;17.30;99.90;;;;;;5033272;28;20053;-71
2021/07/11 04:03:31;;;;;;;50.35;31.27;;;17.30;99.90;;;;;;5033959;28;20033;-70
2021/07/11 04:05:58;;;;;;;56.33;33.33;;;17.30;99.90;;;;;;5034295;28;20057;-70
2021/07/11 04:08:25;;;;;;;50.17;31.30;;;17.30;99.90;;;;;;5033542;28;20026;-71
2021/07/11 04:10:51;;;;;;;49.08;31.30;;;17.40;99.90;;;;;;5033947;28;20041;-72
2021/07/11 04:13:17;;;;;;;52.67;32.22;;;17.40;99.90;;;;;;5033762;28;20443;-71
2021/07/11 04:15:49;;;;;;;55.05;32.88;;;17.40;99.90;;;;;;5034363;28;20025;-72
2021/07/11 04:18:18;;;;;;;52.03;32.00;;;17.40;99.90;;;;;;5034528;28;20018;-70
2021/07/11 04:20:46;;;;;;;57.20;33.90;;;17.40;99.90;;;;;;5032968;28;20028;-71
2021/07/11 04:23:13;;;;;;;59.20;34.05;;;17.40;99.90;;;;;;5034481;28;20112;-70
2021/07/11 04:25:44;;;;;;;53.40;31.80;;;17.40;99.90;;;;;;5034552;28;20021;-70
2021/07/11 04:28:11;;;;;;;51.58;31.42;;;17.40;99.90;;;;;;5033714;28;20461;-70
2021/07/11 04:30:37;;;;;;;49.38;29.65;;;17.40;99.90;;;;;;5033974;28;20099;-71
2021/07/11 04:33:04;;;;;;;49.33;29.92;;;17.50;99.90;;;;;;5033581;28;20028;-70
2021/07/11 04:35:30;;;;;;;49.85;31.70;;;17.50;99.90;;;;;;5031993;28;20039;-71
2021/07/11 04:37:56;;;;;;;56.35;32.45;;;17.60;99.90;;;;;;5033397;28;20404;-71
2021/07/11 04:40:22;;;;;;;47.53;32.10;;;17.60;99.90;;;;;;5033793;28;20037;-70
2021/07/11 04:42:47;;;;;;;54.13;31.45;;;17.70;99.90;;;;;;5032754;28;20025;-70
2021/07/11 04:45:13;;;;;;;45.38;29.83;;;17.80;99.90;;;;;;5033530;28;20056;-70
2021/07/11 04:47:39;;;;;;;45.15;27.85;;;17.80;99.90;;;;;;5033402;28;20492;-71
2021/07/11 04:50:06;;;;;;;50.80;30.25;;;17.80;99.90;;;;;;5032529;28;20037;-70
2021/07/11 04:52:32;;;;;;;46.67;30.40;;;17.90;99.90;;;;;;5033451;28;20044;-70
2021/07/11 04:54:58;;;;;;;41.20;28.33;;;17.90;99.90;;;;;;5033540;28;20481;-70
2021/07/11 04:57:24;;;;;;;51.40;32.15;;;17.90;99.90;;;;;;5033013;28;20017;-70
2021/07/11 04:59:50;;;;;;;50.45;30.58;;;18.00;99.90;;;;;;5033067;28;20060;-71
2021/07/11 05:02:15;;;;;;;50.38;31.35;;;18.00;99.90;;;;;;5033233;28;20477;-71
2021/07/11 05:04:41;;;;;;;51.08;32.65;;;18.00;99.90;;;;;;5032582;28;20033;-70
2021/07/11 05:07:07;;;;;;;44.78;28.52;;;18.00;99.90;;;;;;5032737;28;20021;-72
2021/07/11 05:09:32;;;;;;;48.08;31.00;;;18.00;99.90;;;;;;5032587;28;20026;-71
2021/07/11 05:11:58;;;;;;;48.05;29.35;;;18.10;99.90;;;;;;5032678;28;20029;-71
2021/07/11 05:14:23;;;;;;;49.10;30.55;;;18.10;99.90;;;;;;5033846;28;20063;-71
2021/07/11 05:16:49;;;;;;;45.83;30.73;;;18.10;99.90;;;;;;5031878;28;20090;-71
2021/07/11 05:19:14;;;;;;;46.72;30.75;;;18.10;99.90;;;;;;5033259;28;20085;-71
2021/07/11 05:21:40;;;;;;;49.55;31.85;;;18.20;99.90;;;;;;5033001;28;20029;-72
2021/07/11 05:24:05;;;;;;;49.63;30.80;;;18.10;99.90;;;;;;5032012;28;20018;-70
2021/07/11 05:26:31;;;;;;;54.60;30.60;;;18.10;99.90;;;;;;5033208;28;20032;-71
2021/07/11 05:28:57;;;;;;;46.47;28.85;;;18.10;99.90;;;;;;5032552;28;20105;-70
2021/07/11 05:31:22;;;;;;;41.17;27.77;;;18.10;99.90;;;;;;5032130;28;20033;-71
2021/07/11 05:33:48;;;;;;;54.33;30.73;;;18.20;99.90;;;;;;5032607;28;20026;-71
2021/07/11 05:36:14;;;;;;;42.53;29.30;;;18.20;99.90;;;;;;5032601;28;20130;-71
2021/07/11 05:38:40;;;;;;;42.75;27.55;;;18.30;99.90;;;;;;5032414;28;20017;-71
2021/07/11 05:41:06;;;;;;;42.75;28.25;;;18.30;99.90;;;;;;5032305;28;20108;-71
2021/07/11 05:43:32;;;;;;;45.25;29.02;;;18.30;99.90;;;;;;5032506;28;20022;-71
2021/07/11 05:46:01;;;;;;;42.60;28.05;;;18.40;99.90;;;;;;5031326;28;20091;-71
2021/07/11 05:48:27;;;;;;;44.42;29.02;;;18.50;99.90;;;;;;5032475;28;20041;-71
2021/07/11 05:50:53;;;;;;;45.97;27.75;;;18.50;99.90;;;;;;5032200;28;20099;-70
2021/07/11 05:53:18;;;;;;;42.85;28.00;;;18.60;99.90;;;;;;5031434;28;20022;-71
2021/07/11 05:55:44;;;;;;;43.45;27.38;;;18.60;99.90;;;;;;5032097;28;20026;-72
2021/07/11 05:58:10;;;;;;;40.17;26.58;;;18.70;99.90;;;;;;5032455;28;20017;-75
2021/07/11 06:00:36;;;;;;;39.78;27.13;;;18.60;99.90;;;;;;5031744;28;20111;-70
2021/07/11 06:03:02;;;;;;;42.13;27.67;;;18.60;99.90;;;;;;5032520;28;20029;-72
2021/07/11 06:05:28;;;;;;;43.97;27.23;;;18.60;99.90;;;;;;5032241;28;20043;-71
2021/07/11 06:07:54;;;;;;;39.72;25.48;;;18.60;99.90;;;;;;5031586;28;20025;-70
2021/07/11 06:10:20;;;;;;;44.58;26.58;;;18.60;99.90;;;;;;5032150;28;20087;-70
2021/07/11 06:12:45;;;;;;;40.25;27.33;;;18.60;99.90;;;;;;5031384;28;20028;-72
2021/07/11 06:15:11;;;;;;;41.70;29.00;;;18.60;99.90;;;;;;5032196;28;20116;-71
2021/07/11 06:17:37;;;;;;;52.67;32.10;;;18.60;99.90;;;;;;5032232;28;20021;-72
2021/07/11 06:20:06;;;;;;;49.08;31.25;;;18.50;99.90;;;;;;5031275;28;20029;-71
2021/07/11 06:22:31;;;;;;;48.35;31.27;;;18.50;99.90;;;;;;5032383;28;20030;-71
2021/07/11 06:24:57;;;;;;;41.75;28.70;;;18.40;99.90;;;;;;5032576;28;20108;-70
2021/07/11 06:27:23;;;;;;;48.55;31.77;;;18.40;99.90;;;;;;5031464;28;20484;-71
2021/07/11 06:29:49;;;;;;;45.83;30.23;;;18.40;99.90;;;;;;5031919;28;20041;-71
2021/07/11 06:32:15;;;;;;;48.03;31.77;;;18.40;99.90;;;;;;5031796;28;20500;-70
2021/07/11 06:34:40;;;;;;;47.92;30.20;;;18.30;99.90;;;;;;5031512;28;20057;-71
2021/07/11 06:37:06;;;;;;;36.83;25.83;;;18.30;99.90;;;;;;5031588;28;20354;-70
2021/07/11 06:39:32;;;;;;;39.38;26.70;;;18.30;99.90;;;;;;5030133;28;20539;-71
2021/07/11 06:41:57;;;;;;;38.90;26.17;;;18.30;99.90;;;;;;5029629;28;20543;-71
2021/07/11 06:44:23;;;;;;;38.95;25.77;;;18.30;99.90;;;;;;5030922;28;20022;-71
2021/07/11 06:46:48;;;;;;;36.42;24.45;;;18.10;99.90;;;;;;5027708;28;20072;-70
2021/07/11 06:49:14;;;;;;;33.00;24.60;;;18.10;99.90;;;;;;5026602;28;20486;-71
2021/07/11 06:51:39;;;;;;;39.22;25.48;;;18.10;99.90;;;;;;5030689;28;20492;-70
2021/07/11 06:54:05;;;;;;;37.35;24.50;;;18.10;99.90;;;;;;5027722;28;20017;-73
2021/07/11 06:56:30;;;;;;;35.78;25.17;;;18.10;99.90;;;;;;5030069;28;20033;-72
2021/07/11 06:58:56;;;;;;;40.60;26.70;;;18.10;99.90;;;;;;5031258;28;20488;-71
2021/07/11 07:01:22;;;;;;;37.42;27.48;;;18.00;99.90;;;;;;5034335;28;20132;-70
2021/07/11 07:03:47;;;;;;;37.67;26.05;;;18.00;99.90;;;;;;5032299;28;20024;-71
2021/07/11 07:06:13;;;;;;;39.88;26.38;;;18.00;99.90;;;;;;5034586;28;20430;-71
2021/07/11 07:08:38;;;;;;;39.88;26.67;;;17.90;99.90;;;;;;5034501;28;20039;-71
2021/07/11 07:11:04;;;;;;;45.72;26.80;;;17.90;99.90;;;;;;5033529;28;20061;-71
2021/07/11 07:13:29;;;;;;;40.70;27.63;;;17.90;99.90;;;;;;5034279;28;20107;-71
2021/07/11 07:15:55;;;;;;;44.10;28.45;;;17.90;99.90;;;;;;5033874;28;20021;-72
2021/07/11 07:18:20;;;;;;;44.15;27.67;;;17.90;99.90;;;;;;5034326;28;20017;-73
2021/07/11 07:20:46;;;;;;;38.50;27.42;;;17.90;99.90;;;;;;5034747;28;20022;-72
2021/07/11 07:23:12;;;;;;;43.70;28.90;;;17.80;99.90;;;;;;5034151;28;20135;-73
2021/07/11 07:25:37;;;;;;;43.25;28.88;;;17.90;99.90;;;;;;5034633;28;20049;-73
2021/07/11 07:28:03;;;;;;;47.13;29.30;;;17.90;99.90;;;;;;5034352;28;20505;-72
2021/07/11 07:30:29;;;;;;;43.47;29.50;;;17.90;99.90;;;;;;5033818;28;20529;-73
2021/07/11 07:32:54;;;;;;;47.15;30.20;;;17.80;99.90;;;;;;5033929;28;20014;-73
2021/07/11 07:35:21;;;;;;;45.53;29.00;;;17.90;99.90;;;;;;5033523;28;20030;-73
2021/07/11 07:37:48;;;;;;;44.78;29.17;;;17.90;99.90;;;;;;5032630;28;20022;-73
2021/07/11 07:40:17;;;;;;;42.38;29.23;;;17.80;99.90;;;;;;5030556;28;20056;-73
2021/07/11 07:42:47;;;;;;;47.33;29.63;;;17.80;99.90;;;;;;5029934;28;20037;-74
2021/07/11 07:45:13;;;;;;;46.33;29.98;;;17.80;99.90;;;;;;5033273;28;20157;-72
2021/07/11 07:47:39;;;;;;;48.17;30.67;;;17.80;99.90;;;;;;5033074;28;20038;-72
2021/07/11 07:50:07;;;;;;;51.15;30.98;;;17.80;99.90;;;;;;5033391;28;20036;-73
2021/07/11 07:52:33;;;;;;;47.88;31.80;;;17.80;99.90;;;;;;5033621;28;20435;-73
2021/07/11 07:54:58;;;;;;;46.42;30.05;;;17.90;99.90;;;;;;5034059;28;20029;-74
2021/07/11 07:57:24;;;;;;;49.63;29.90;;;17.90;99.90;;;;;;5034646;28;20024;-74
2021/07/11 07:59:49;;;;;;;49.28;29.30;;;18.00;99.90;;;;;;5033214;28;20107;-73
2021/07/11 08:02:15;;;;;;;52.97;35.78;;;18.00;99.90;;;;;;5020544;28;20121;-74
2021/07/11 08:04:42;;;;;;;47.10;29.05;;;18.00;99.90;;;;;;5015834;28;20492;-74
2021/07/11 08:07:08;;;;;;;50.58;31.20;;;18.00;99.90;;;;;;5021251;28;20422;-73
2021/07/11 08:09:34;;;;;;;45.72;30.25;;;18.10;99.90;;;;;;5034010;28;20057;-74
2021/07/11 08:12:00;;;;;;;44.63;29.75;;;18.10;99.90;;;;;;5033537;28;20022;-74
2021/07/11 08:14:25;;;;;;;46.58;29.75;;;18.10;99.90;;;;;;5033150;28;20108;-76
2021/07/11 08:16:51;;;;;;;52.70;30.98;;;18.20;99.90;;;;;;5033796;28;20495;-73
2021/07/11 08:19:17;;;;;;;46.90;31.98;;;18.20;99.90;;;;;;5032986;28;20492;-74
2021/07/11 08:21:42;;;;;;;44.78;29.20;;;18.30;99.90;;;;;;5033864;28;20028;-77
2021/07/11 08:24:08;;;;;;;42.78;28.98;;;18.30;99.90;;;;;;5033710;28;20485;-74
2021/07/11 08:26:33;;;;;;;42.67;27.95;;;18.40;99.90;;;;;;5033343;28;20033;-73
2021/07/11 08:29:00;;;;;;;42.05;28.25;;;18.40;99.90;;;;;;5033531;28;20017;-73
2021/07/11 08:31:25;;;;;;;40.38;27.08;;;18.50;99.90;;;;;;5033861;28;20037;-73
2021/07/11 08:33:51;;;;;;;42.53;29.08;;;18.50;99.90;;;;;;5032748;28;20071;-73
2021/07/11 08:36:16;;;;;;;41.95;29.15;;;18.50;99.90;;;;;;5033936;28;20037;-73
2021/07/11 08:38:42;;;;;;;43.45;29.42;;;18.60;99.90;;;;;;5033929;28;20026;-74
2021/07/11 08:41:08;;;;;;;39.13;27.17;;;18.60;99.90;;;;;;5033093;28;20036;-74
2021/07/11 08:43:38;;;;;;;44.63;29.63;;;18.60;99.90;;;;;;5035004;28;20025;-73
2021/07/11 08:46:04;;;;;;;45.47;30.30;;;18.60;99.90;;;;;;5033764;28;20037;-73
2021/07/11 08:48:29;;;;;;;45.92;30.23;;;18.60;99.90;;;;;;5013338;28;20359;-73
2021/07/11 08:51:00;;;;;;;43.00;29.33;;;18.60;99.90;;;;;;5026118;28;20032;-73
2021/07/11 08:53:26;;;;;;;45.53;29.67;;;18.70;99.90;;;;;;5033444;28;20504;-73
2021/07/11 08:55:51;;;;;;;45.20;30.88;;;18.70;99.90;;;;;;5032742;28;20100;-73
2021/07/11 08:58:17;;;;;;;45.03;30.92;;;18.70;99.90;;;;;;5033315;28;20071;-73
2021/07/11 09:00:43;;;;;;;46.28;30.60;;;18.80;99.90;;;;;;5031747;28;20034;-73
2021/07/11 09:03:09;;;;;;;49.33;31.45;;;18.90;99.90;;;;;;5032651;28;20032;-72
2021/07/11 09:05:39;;;;;;;50.38;32.90;;;19.10;99.90;;;;;;5032885;28;20026;-73
2021/07/11 09:08:23;;;;;;;50.97;31.98;;;19.10;99.90;;;;;;5031269;28;20044;-73
2021/07/11 09:10:58;;;;;;;48.95;34.20;;;19.30;99.90;;;;;;5031135;28;20045;-72
2021/07/11 09:13:25;;;;;;;48.47;34.22;;;19.30;99.90;;;;;;5029179;28;20022;-73
2021/07/11 09:15:57;;;;;;;54.38;35.53;;;19.50;99.90;;;;;;5017956;28;20041;-73
2021/07/11 09:18:29;;;;;;;50.75;34.20;;;19.50;99.90;;;;;;5038455;28;20033;-73
2021/07/11 09:21:02;;;;;;;49.10;35.20;;;19.60;99.90;;;;;;5032677;28;20495;-73
2021/07/11 09:23:29;;;;;;;52.03;34.55;;;19.80;99.90;;;;;;5035354;28;20105;-73
2021/07/11 09:26:12;;;;;;;48.38;35.40;;;20.00;99.90;;;;;;5038244;28;21318;-72
2021/07/11 09:28:49;;;;;;;49.97;34.25;;;20.00;99.90;;;;;;5049176;28;20143;-72
2021/07/11 09:31:17;;;;;;;51.28;33.83;;;20.10;99.90;;;;;;5043197;28;20115;-73
2021/07/11 09:33:54;;;;;;;47.42;33.58;;;20.20;99.90;;;;;;5045619;28;20070;-73
2021/07/11 09:36:22;;;;;;;41.65;29.10;;;20.30;99.90;;;;;;5047025;28;20021;-72
2021/07/11 09:38:52;;;;;;;40.78;29.83;;;20.50;99.90;;;;;;5044920;28;20100;-73
2021/07/11 09:41:33;;;;;;;34.90;27.52;;;20.70;99.90;;;;;;5044138;28;20027;-73
2021/07/11 09:44:00;;;;;;;41.53;27.73;;;20.90;99.90;;;;;;5042654;28;20068;-73
2021/07/11 09:46:28;;;;;;;39.10;28.17;;;21.10;99.90;;;;;;5037624;28;20067;-72
2021/07/11 09:48:54;;;;;;;39.25;28.85;;;21.40;99.90;;;;;;5037810;28;20044;-72
2021/07/11 09:51:28;;;;;;;37.65;27.15;;;21.40;99.90;;;;;;5047184;28;20033;-73
2021/07/11 09:53:55;;;;;;;34.88;26.88;;;21.40;99.90;;;;;;5045898;28;20052;-73
2021/07/11 09:56:38;;;;;;;33.42;26.05;;;21.50;99.90;;;;;;5036929;28;20432;-72
2021/07/11 09:59:06;;;;;;;39.17;26.40;;;21.60;99.90;;;;;;5040340;28;20021;-73
2021/07/11 10:01:34;;;;;;;34.95;26.85;;;21.80;99.90;;;;;;5042948;28;20053;-73
2021/07/11 10:04:00;;;;;;;39.47;28.85;;;21.50;99.90;;;;;;5046480;28;20051;-73
2021/07/11 10:06:28;;;;;;;38.35;28.08;;;21.40;99.90;;;;;;5039200;28;20033;-73
2021/07/11 10:08:55;;;;;;;32.38;26.85;;;21.40;99.90;;;;;;5033948;28;20032;-73
2021/07/11 10:11:21;;;;;;;35.47;26.98;;;21.50;99.90;;;;;;5035660;28;20143;-73
2021/07/11 10:13:47;;;;;;;40.33;28.10;;;21.60;99.90;;;;;;5034994;28;20428;-72
2021/07/11 10:16:15;;;;;;;42.10;29.27;;;21.80;99.90;;;;;;5039529;28;20086;-72
2021/07/11 10:18:43;;;;;;;38.40;28.88;;;21.80;99.90;;;;;;5037087;28;20033;-73
2021/07/11 10:21:12;;;;;;;38.15;29.90;;;21.80;99.90;;;;;;5039496;28;20030;-72
2021/07/11 10:23:40;;;;;;;38.93;27.77;;;21.70;99.90;;;;;;5039010;28;20116;-73
2021/07/11 10:26:12;;;;;;;34.70;26.35;;;21.90;99.90;;;;;;5036185;28;20272;-73
2021/07/11 10:28:39;;;;;;;41.10;29.45;;;22.10;99.90;;;;;;5039191;28;20029;-74
2021/07/11 10:31:16;;;;;;;39.55;29.50;;;22.20;99.90;;;;;;5037591;28;20135;-74
2021/07/11 10:33:43;;;;;;;35.38;27.02;;;21.80;99.90;;;;;;5035819;28;20056;-73
2021/07/11 10:36:09;;;;;;;37.28;25.63;;;21.70;99.90;;;;;;5039385;28;20029;-73
2021/07/11 10:38:52;;;;;;;37.33;28.02;;;21.80;99.90;;;;;;5042442;28;20024;-73
2021/07/11 10:41:22;;;;;;;35.97;27.17;;;21.80;99.90;;;;;;5040943;28;20079;-73
2021/07/11 10:43:59;;;;;;;35.90;28.95;;;21.80;99.90;;;;;;5051427;28;20021;-73
2021/07/11 10:46:53;;;;;;;34.08;27.45;;;21.80;99.90;;;;;;5049815;28;20354;-72
2021/07/11 10:49:22;;;;;;;35.92;29.10;;;21.70;99.90;;;;;;5043206;28;20024;-73
2021/07/11 10:51:54;;;;;;;38.90;29.20;;;21.60;99.90;;;;;;5046966;28;20051;-72
2021/07/11 10:54:26;;;;;;;43.92;33.63;;;21.70;99.90;;;;;;5051080;28;20542;-73
2021/07/11 10:56:56;;;;;;;39.20;30.23;;;21.70;99.90;;;;;;5024631;28;20491;-73
2021/07/11 10:59:25;;;;;;;47.05;34.42;;;21.60;99.90;;;;;;5044988;28;20021;-73
2021/07/11 11:01:51;;;;;;;46.97;33.33;;;21.50;99.90;;;;;;5045890;28;20048;-72
2021/07/11 11:04:17;;;;;;;42.03;32.50;;;21.30;99.90;;;;;;5047162;28;20397;-73
2021/07/11 11:06:43;;;;;;;38.78;29.55;;;21.20;99.90;;;;;;5050672;28;20054;-72
2021/07/11 11:09:08;;;;;;;40.33;30.70;;;21.20;99.90;;;;;;5046384;28;20040;-74
2021/07/11 11:11:34;;;;;;;38.75;30.00;;;21.10;99.90;;;;;;5052366;28;20033;-74
2021/07/11 11:14:06;;;;;;;38.75;31.05;;;21.00;99.90;;;;;;5047438;28;20021;-72
2021/07/11 11:16:45;;;;;;;39.33;30.83;;;20.90;99.90;;;;;;5049519;28;20091;-72
2021/07/11 11:19:15;;;;;;;41.28;30.30;;;20.90;99.90;;;;;;5043653;28;20106;-70
2021/07/11 11:21:41;;;;;;;41.42;29.52;;;21.00;99.90;;;;;;5048112;28;20029;-74
2021/07/11 11:24:07;;;;;;;36.88;28.45;;;21.10;99.90;;;;;;5048022;28;20083;-72
2021/07/11 11:26:33;;;;;;;35.25;28.13;;;21.20;99.90;;;;;;5039021;28;20013;-73
2021/07/11 11:29:00;;;;;;;29.48;24.75;;;21.30;99.90;;;;;;5044740;28;20035;-72
2021/07/11 11:31:30;;;;;;;38.80;28.10;;;21.50;99.90;;;;;;5048377;28;20407;-74
2021/07/11 11:34:06;;;;;;;33.67;27.58;;;21.60;99.90;;;;;;5048639;28;20057;-73
2021/07/11 11:36:37;;;;;;;34.33;26.00;;;21.60;99.90;;;;;;5048851;28;20037;-74
2021/07/11 11:39:05;;;;;;;;;;;21.80;99.90;;;;;;5051056;28;20108;-73
2021/07/11 11:41:30;;;;;;;33.22;26.02;;;22.00;99.90;;;;;;5050012;28;19999;-73
2021/07/11 11:44:17;;;;;;;38.13;29.05;;;22.10;99.90;;;;;;5049203;28;20117;-73
2021/07/11 11:46:48;;;;;;;31.02;25.10;;;22.20;99.90;;;;;;5048961;28;20021;-74
2021/07/11 11:49:16;;;;;;;32.85;25.63;;;22.20;99.90;;;;;;5051649;28;20021;-73
2021/07/11 11:51:48;;;;;;;31.95;25.88;;;22.30;99.90;;;;;;5050588;28;20025;-73
2021/07/11 11:54:40;;;;;;;30.05;25.45;;;22.30;99.90;;;;;;5036637;28;20033;-74
2021/07/11 11:57:08;;;;;;;34.38;26.45;;;22.40;99.90;;;;;;5028309;28;20087;-72
2021/07/11 11:59:34;;;;;;;32.45;25.88;;;22.50;99.90;;;;;;5025526;28;20385;-73
2021/07/11 12:02:03;;;;;;;33.63;26.27;;;22.50;99.90;;;;;;5024393;28;20048;-73
2021/07/11 12:04:30;;;;;;;31.27;27.30;;;22.60;99.90;;;;;;5016954;28;20879;-73
2021/07/11 12:06:58;;;;;;;35.38;26.40;;;22.80;99.90;;;;;;5019878;28;20057;-73
2021/07/11 12:09:28;;;;;;;26.88;22.92;;;23.00;99.90;;;;;;5026189;28;20045;-73
2021/07/11 12:12:06;;;;;;;28.00;22.08;;;23.10;99.90;;;;;;5029658;28;20465;-72
2021/07/11 12:14:36;;;;;;;25.63;20.83;;;23.20;99.90;;;;;;5048346;28;20476;-73
2021/07/11 12:17:04;;;;;;;29.20;24.13;;;23.40;99.90;;;;;;5043219;28;20378;-73
2021/07/11 12:19:40;;;;;;;26.20;22.23;;;23.60;99.90;;;;;;5034890;28;20037;-73
2021/07/11 12:22:06;;;;;;;26.95;21.98;;;23.70;99.90;;;;;;5036872;28;20017;-72
2021/07/11 12:24:31;;;;;;;20.05;17.60;;;23.80;99.90;;;;;;5035130;28;20660;-74
2021/07/11 12:27:03;;;;;;;8.27;7.68;;;23.80;99.90;;;;;;5033673;28;20025;-72
2021/07/11 12:29:33;;;;;;;8.23;7.53;;;23.70;99.90;;;;;;5040069;28;20029;-73
2021/07/11 12:32:02;;;;;;;7.15;6.63;;;23.60;99.90;;;;;;5024174;28;20026;-72